createdAt,value
2019-04-27T00:02:36.947Z,9.02
2019-04-27T00:05:32.250Z,8.98
2019-04-27T00:08:16.882Z,9.14
2019-04-27T00:11:09.532Z,9.17
2019-04-27T00:13:41.692Z,9.27
2019-04-27T00:16:23.467Z,9.30
2019-04-27T00:19:13.265Z,9.34
2019-04-27T00:22:02.746Z,9.28
2019-04-27T00:24:35.744Z,9.40
2019-04-27T00:27:06.850Z,9.45
2019-04-27T00:29:37.718Z,9.52
2019-04-27T00:32:08.681Z,9.56
2019-04-27T00:34:39.671Z,9.55
2019-04-27T00:37:29.472Z,9.58
2019-04-27T00:40:26.729Z,9.63
2019-04-27T00:42:57.857Z,9.69
2019-04-27T00:45:28.813Z,9.65
2019-04-27T00:48:00.018Z,9.65
2019-04-27T00:50:33.790Z,9.65
2019-04-27T00:53:04.877Z,9.67
2019-04-27T00:55:37.385Z,9.76
2019-04-27T00:58:27.158Z,9.73
2019-04-27T01:01:09.892Z,9.66
2019-04-27T01:03:56.070Z,9.70
2019-04-27T01:06:27.197Z,9.69
2019-04-27T01:08:58.184Z,9.65
2019-04-27T01:11:28.986Z,9.57
2019-04-27T01:13:59.892Z,9.52
2019-04-27T01:16:30.673Z,9.58
2019-04-27T01:19:01.653Z,9.62
2019-04-27T01:21:32.533Z,9.55
2019-04-27T01:24:03.509Z,9.58
2019-04-27T01:27:01.068Z,9.57
2019-04-27T01:29:33.258Z,9.65
2019-04-27T01:32:04.942Z,9.66
2019-04-27T01:34:35.948Z,9.69
2019-04-27T01:37:06.851Z,9.69
2019-04-27T01:39:38.722Z,9.68
2019-04-27T01:42:10.621Z,9.72
2019-04-27T01:44:41.439Z,9.67
2019-04-27T01:47:12.347Z,9.70
2019-04-27T01:49:43.358Z,9.70
2019-04-27T01:52:14.118Z,9.69
2019-04-27T01:54:45.104Z,9.78
2019-04-27T01:57:15.961Z,9.76
2019-04-27T01:59:48.795Z,9.84
2019-04-27T02:02:37.082Z,9.81
2019-04-27T02:05:26.933Z,9.77
2019-04-27T02:07:59.308Z,9.87
2019-04-27T02:10:31.141Z,9.94
2019-04-27T02:13:02.067Z,10.08
2019-04-27T02:15:33.045Z,10.09
2019-04-27T02:18:03.962Z,10.13
2019-04-27T02:20:38.680Z,10.14
2019-04-27T02:23:09.750Z,10.22
2019-04-27T02:25:40.662Z,10.26
2019-04-27T02:28:21.735Z,10.30
2019-04-27T02:31:10.343Z,10.32
2019-04-27T02:34:00.169Z,10.44
2019-04-27T02:36:31.209Z,10.66
2019-04-27T02:39:02.291Z,10.59
2019-04-27T02:41:34.619Z,10.62
2019-04-27T02:44:11.913Z,10.70
2019-04-27T02:46:42.784Z,10.72
2019-04-27T02:49:13.721Z,10.65
2019-04-27T02:52:02.454Z,10.66
2019-04-27T02:54:33.457Z,10.66
2019-04-27T02:57:04.323Z,10.57
2019-04-27T02:59:35.279Z,10.60
2019-04-27T03:02:25.143Z,10.58
2019-04-27T03:04:56.015Z,10.57
2019-04-27T03:07:26.918Z,10.56
2019-04-27T03:09:59.652Z,10.71
2019-04-27T03:12:35.358Z,10.56
2019-04-27T03:15:41.137Z,10.48
2019-04-27T03:18:16.473Z,10.49
2019-04-27T03:21:10.396Z,10.54
2019-04-27T03:23:41.322Z,10.58
2019-04-27T03:26:31.349Z,10.58
2019-04-27T03:29:02.449Z,10.69
2019-04-27T03:31:33.366Z,10.66
2019-04-27T03:34:05.485Z,10.71
2019-04-27T03:36:39.356Z,10.66
2019-04-27T03:39:10.334Z,10.57
2019-04-27T03:41:41.374Z,10.53
2019-04-27T03:44:12.270Z,10.50
2019-04-27T03:46:43.212Z,10.49
2019-04-27T03:49:28.084Z,10.49
2019-04-27T03:52:05.599Z,10.52
2019-04-27T03:54:45.159Z,10.55
2019-04-27T03:57:24.912Z,10.50
2019-04-27T04:00:00.334Z,10.47
2019-04-27T04:02:31.424Z,10.47
2019-04-27T04:05:02.476Z,10.46
2019-04-27T04:07:33.527Z,10.52
2019-04-27T04:10:05.271Z,10.53
2019-04-27T04:12:51.142Z,10.57
2019-04-27T04:15:52.197Z,10.45
2019-04-27T04:18:23.915Z,10.65
2019-04-27T04:20:54.906Z,10.68
2019-04-27T04:23:25.685Z,10.56
2019-04-27T04:25:59.514Z,10.57
2019-04-27T04:28:29.762Z,10.65
2019-04-27T04:31:01.034Z,10.71
2019-04-27T04:33:31.893Z,10.76
2019-04-27T04:36:02.946Z,10.77
2019-04-27T04:38:33.902Z,10.82
2019-04-27T04:41:09.566Z,10.83
2019-04-27T04:43:46.577Z,10.85
2019-04-27T04:46:39.944Z,10.87
2019-04-27T04:49:09.891Z,10.95
2019-04-27T04:51:41.132Z,10.99
2019-04-27T04:54:12.096Z,11.06
2019-04-27T04:56:43.162Z,11.12
2019-04-27T04:59:13.950Z,11.20
2019-04-27T05:01:44.900Z,11.23
2019-04-27T05:04:15.747Z,11.14
2019-04-27T05:06:46.638Z,11.24
2019-04-27T05:09:19.220Z,11.21
2019-04-27T05:11:50.118Z,11.18
2019-04-27T05:14:21.658Z,11.17
2019-04-27T05:16:52.589Z,11.13
2019-04-27T05:19:23.757Z,11.20
2019-04-27T05:21:54.569Z,11.20
2019-04-27T05:24:25.600Z,11.19
2019-04-27T05:26:56.432Z,11.21
2019-04-27T05:29:29.125Z,11.22
2019-04-27T05:32:00.246Z,11.19
2019-04-27T05:34:31.206Z,11.14
2019-04-27T05:37:02.980Z,11.05
2019-04-27T05:39:33.802Z,11.09
2019-04-27T05:42:04.794Z,11.05
2019-04-27T05:45:03.351Z,11.11
2019-04-27T05:47:48.373Z,10.94
2019-04-27T05:50:21.951Z,10.98
2019-04-27T05:52:51.010Z,10.91
2019-04-27T05:55:22.125Z,10.86
2019-04-27T05:57:53.014Z,10.88
2019-04-27T06:00:23.906Z,10.85
2019-04-27T06:02:54.786Z,10.93
2019-04-27T06:05:25.590Z,10.88
2019-04-27T06:07:56.452Z,10.66
2019-04-27T06:10:27.232Z,10.91
2019-04-27T06:12:59.771Z,10.81
2019-04-27T06:15:30.760Z,10.90
2019-04-27T06:18:01.689Z,10.95
2019-04-27T06:20:32.581Z,10.83
2019-04-27T06:23:03.462Z,10.97
2019-04-27T06:25:34.465Z,10.92
2019-04-27T06:28:05.403Z,10.93
2019-04-27T06:30:36.197Z,11.14
2019-04-27T06:33:07.074Z,11.07
2019-04-27T06:35:39.461Z,11.12
2019-04-27T06:38:11.620Z,11.21
2019-04-27T06:40:42.600Z,11.11
2019-04-27T06:43:14.565Z,11.01
2019-04-27T06:45:45.306Z,10.98
2019-04-27T06:48:16.187Z,11.02
2019-04-27T06:50:46.969Z,11.09
2019-04-27T06:53:19.165Z,11.08
2019-04-27T06:55:50.169Z,11.09
2019-04-27T06:58:21.147Z,11.00
2019-04-27T07:00:52.046Z,11.07
2019-04-27T07:03:23.380Z,10.93
2019-04-27T07:05:54.235Z,11.01
2019-04-27T07:08:25.172Z,10.99
2019-04-27T07:10:56.105Z,10.98
2019-04-27T07:13:26.961Z,10.98
2019-04-27T07:15:59.563Z,10.98
2019-04-27T07:18:30.272Z,10.83
2019-04-27T07:21:01.512Z,10.86
2019-04-27T07:23:32.341Z,10.89
2019-04-27T07:26:03.389Z,10.95
2019-04-27T07:28:34.242Z,10.92
2019-04-27T07:31:05.210Z,10.98
2019-04-27T07:33:36.002Z,10.95
2019-04-27T07:36:06.901Z,10.93
2019-04-27T07:38:39.381Z,10.93
2019-04-27T07:41:11.227Z,11.11
2019-04-27T07:44:03.922Z,11.01
2019-04-27T07:46:34.840Z,11.05
2019-04-27T07:49:06.209Z,11.03
2019-04-27T07:51:39.192Z,11.10
2019-04-27T07:54:09.788Z,11.06
2019-04-27T07:56:40.570Z,11.23
2019-04-27T07:59:11.429Z,11.19
2019-04-27T08:01:42.231Z,11.46
2019-04-27T08:04:13.287Z,11.34
2019-04-27T08:06:44.127Z,11.57
2019-04-27T08:09:14.953Z,11.48
2019-04-27T08:11:46.051Z,11.55
2019-04-27T08:14:18.516Z,11.36
2019-04-27T08:16:49.390Z,11.34
2019-04-27T08:19:20.406Z,11.31
2019-04-27T08:21:51.186Z,11.32
2019-04-27T08:24:22.411Z,11.34
2019-04-27T08:27:19.413Z,11.61
2019-04-27T08:30:15.398Z,11.59
2019-04-27T08:32:49.546Z,11.40
2019-04-27T08:35:21.110Z,11.57
2019-04-27T08:37:52.113Z,11.47
2019-04-27T08:40:23.199Z,11.52
2019-04-27T08:42:55.649Z,11.58
2019-04-27T08:45:26.827Z,11.66
2019-04-27T08:47:59.538Z,11.86
2019-04-27T08:50:30.383Z,11.87
2019-04-27T08:53:01.235Z,11.88
2019-04-27T08:55:32.222Z,11.97
2019-04-27T08:58:03.113Z,12.04
2019-04-27T09:00:34.097Z,12.00
2019-04-27T09:03:04.865Z,11.86
2019-04-27T09:05:35.753Z,11.79
2019-04-27T09:08:25.489Z,11.74
2019-04-27T09:11:14.550Z,11.75
2019-04-27T09:14:04.167Z,11.70
2019-04-27T09:17:00.081Z,11.76
2019-04-27T09:19:39.407Z,11.93
2019-04-27T09:22:16.115Z,12.11
2019-04-27T09:24:42.895Z,11.98
2019-04-27T09:27:13.904Z,11.95
2019-04-27T09:29:44.693Z,11.89
2019-04-27T09:32:15.577Z,11.92
2019-04-27T09:34:46.739Z,12.16
2019-04-27T09:37:17.556Z,12.36
2019-04-27T09:39:48.434Z,12.56
2019-04-27T09:42:19.322Z,12.64
2019-04-27T09:44:50.202Z,12.68
2019-04-27T09:47:21.178Z,12.82
2019-04-27T09:49:52.073Z,12.69
2019-04-27T09:52:26.251Z,12.79
2019-04-27T09:54:56.046Z,12.90
2019-04-27T09:57:26.884Z,12.79
2019-04-27T09:59:57.785Z,12.93
2019-04-27T10:02:28.693Z,13.01
2019-04-27T10:04:59.571Z,13.02
2019-04-27T10:07:30.474Z,13.33
2019-04-27T10:10:01.226Z,13.64
2019-04-27T10:12:34.325Z,14.00
2019-04-27T10:15:06.134Z,14.03
2019-04-27T10:17:37.079Z,14.03
2019-04-27T10:20:08.378Z,14.12
2019-04-27T10:22:42.891Z,14.29
2019-04-27T10:25:23.453Z,14.57
2019-04-27T10:28:00.436Z,14.48
2019-04-27T10:30:31.845Z,14.58
2019-04-27T10:33:02.688Z,14.36
2019-04-27T10:35:33.561Z,14.04
2019-04-27T10:38:04.537Z,13.94
2019-04-27T10:40:35.219Z,14.00
2019-04-27T10:43:06.430Z,14.00
2019-04-27T10:45:38.555Z,13.76
2019-04-27T10:48:09.743Z,13.75
2019-04-27T10:50:41.654Z,13.94
2019-04-27T10:53:12.962Z,13.96
2019-04-27T10:55:43.717Z,14.24
2019-04-27T10:58:14.694Z,14.38
2019-04-27T11:00:50.580Z,14.45
2019-04-27T11:03:40.507Z,14.58
2019-04-27T11:06:36.124Z,14.57
2019-04-27T11:09:09.653Z,14.42
2019-04-27T11:11:42.396Z,14.80
2019-04-27T11:14:13.635Z,14.44
2019-04-27T11:16:45.988Z,14.65
2019-04-27T11:19:17.097Z,14.42
2019-04-27T11:21:48.104Z,14.55
2019-04-27T11:24:19.158Z,14.26
2019-04-27T11:26:50.134Z,14.26
2019-04-27T11:29:21.030Z,14.66
2019-04-27T11:31:52.100Z,14.70
2019-04-27T11:34:24.655Z,14.78
2019-04-27T11:37:03.546Z,15.05
2019-04-27T11:39:35.947Z,15.54
2019-04-27T11:42:07.027Z,15.84
2019-04-27T11:44:38.625Z,15.91
2019-04-27T11:47:09.442Z,15.63
2019-04-27T11:49:40.214Z,15.52
2019-04-27T11:52:11.197Z,14.94
2019-04-27T11:54:42.094Z,14.75
2019-04-27T11:57:13.060Z,14.92
2019-04-27T11:59:43.851Z,15.02
2019-04-27T12:02:15.617Z,15.01
2019-04-27T12:04:47.486Z,14.77
2019-04-27T12:07:18.446Z,14.38
2019-04-27T12:09:49.252Z,14.32
2019-04-27T12:12:21.901Z,14.03
2019-04-27T12:14:53.184Z,14.04
2019-04-27T12:17:26.611Z,13.88
2019-04-27T12:19:56.701Z,13.88
2019-04-27T12:22:27.904Z,13.98
2019-04-27T12:24:59.806Z,14.01
2019-04-27T12:28:05.086Z,13.95
2019-04-27T12:30:53.878Z,14.09
2019-04-27T12:33:25.614Z,13.86
2019-04-27T12:35:57.358Z,13.78
2019-04-27T12:38:28.433Z,13.71
2019-04-27T12:40:59.349Z,14.03
2019-04-27T12:43:30.122Z,14.19
2019-04-27T12:46:00.958Z,14.43
2019-04-27T12:48:32.361Z,14.59
2019-04-27T12:51:03.367Z,14.86
2019-04-27T12:53:52.130Z,14.93
2019-04-27T12:56:29.643Z,14.80
2019-04-27T12:59:12.595Z,14.89
2019-04-27T13:01:43.477Z,15.04
2019-04-27T13:04:14.350Z,14.86
2019-04-27T13:06:46.883Z,14.68
2019-04-27T13:09:17.993Z,14.55
2019-04-27T13:11:48.865Z,14.50
2019-04-27T13:14:19.821Z,14.42
2019-04-27T13:16:50.739Z,14.44
2019-04-27T13:19:21.634Z,14.55
2019-04-27T13:21:52.396Z,14.75
2019-04-27T13:24:23.343Z,14.98
2019-04-27T13:26:55.957Z,14.91
2019-04-27T13:29:26.765Z,14.81
2019-04-27T13:31:57.818Z,14.43
2019-04-27T13:34:28.726Z,14.70
2019-04-27T13:37:01.390Z,14.90
2019-04-27T13:39:32.365Z,14.74
2019-04-27T13:42:03.226Z,14.92
2019-04-27T13:44:35.930Z,14.92
2019-04-27T13:47:27.285Z,14.80
2019-04-27T13:50:20.961Z,14.85
2019-04-27T13:52:52.052Z,15.21
2019-04-27T13:55:22.845Z,15.26
2019-04-27T13:57:53.831Z,15.22
2019-04-27T14:00:24.712Z,15.19
2019-04-27T14:02:55.627Z,14.94
2019-04-27T14:05:26.509Z,15.14
2019-04-27T14:07:59.061Z,15.27
2019-04-27T14:10:29.997Z,15.32
2019-04-27T14:13:00.906Z,15.64
2019-04-27T14:15:32.797Z,15.71
2019-04-27T14:18:03.641Z,15.64
2019-04-27T14:20:34.514Z,15.31
2019-04-27T14:23:18.796Z,15.44
2019-04-27T14:25:49.872Z,15.35
2019-04-27T14:28:20.725Z,15.44
2019-04-27T14:30:52.637Z,15.24
2019-04-27T14:33:23.611Z,14.98
2019-04-27T14:35:54.733Z,14.96
2019-04-27T14:38:26.517Z,14.50
2019-04-27T14:40:59.241Z,14.61
2019-04-27T14:43:30.020Z,14.33
2019-04-27T14:46:01.169Z,13.92
2019-04-27T14:48:32.020Z,13.83
2019-04-27T14:51:02.994Z,13.73
2019-04-27T14:53:34.694Z,13.78
2019-04-27T14:56:06.466Z,13.52
2019-04-27T14:58:37.407Z,13.68
2019-04-27T15:01:08.401Z,13.37
2019-04-27T15:03:39.289Z,13.56
2019-04-27T15:06:11.036Z,13.22
2019-04-27T15:08:42.691Z,12.83
2019-04-27T15:11:19.254Z,12.84
2019-04-27T15:13:50.436Z,12.68
2019-04-27T15:16:20.670Z,12.51
2019-04-27T15:18:56.197Z,11.84
2019-04-27T15:21:27.010Z,11.64
2019-04-27T15:24:04.279Z,11.31
2019-04-27T15:26:30.873Z,11.28
2019-04-27T15:29:03.491Z,11.36
2019-04-27T15:31:44.728Z,11.08
2019-04-27T15:34:41.816Z,11.28
2019-04-27T15:37:21.159Z,11.02
2019-04-27T15:40:12.712Z,11.23
2019-04-27T15:43:04.839Z,11.48
2019-04-27T15:45:35.830Z,11.28
2019-04-27T15:48:08.353Z,11.16
2019-04-27T15:50:39.498Z,10.99
2019-04-27T15:53:12.590Z,11.17
2019-04-27T15:55:43.464Z,11.39
2019-04-27T15:58:19.386Z,11.47
2019-04-27T16:00:49.647Z,11.61
2019-04-27T16:03:22.663Z,11.58
2019-04-27T16:05:52.674Z,11.60
2019-04-27T16:08:23.549Z,11.60
2019-04-27T16:10:54.643Z,11.50
2019-04-27T16:13:26.407Z,11.38
2019-04-27T16:15:58.407Z,11.31
2019-04-27T16:23:08.838Z,10.80
2019-04-27T16:25:48.486Z,10.53
2019-04-27T16:28:13.493Z,10.59
2019-04-27T16:30:48.147Z,10.66
2019-04-27T16:33:21.975Z,10.45
2019-04-27T16:35:53.043Z,10.23
2019-04-27T16:38:48.201Z,10.52
2019-04-27T16:41:19.135Z,10.28
2019-04-27T16:43:51.130Z,10.53
2019-04-27T16:46:22.019Z,10.38
2019-04-27T16:48:52.793Z,10.59
2019-04-27T16:51:23.726Z,10.76
2019-04-27T16:53:54.783Z,10.78
2019-04-27T16:56:25.493Z,10.79
2019-04-27T16:59:00.561Z,10.66
2019-04-27T17:01:30.713Z,10.52
2019-04-27T17:04:01.581Z,10.35
2019-04-27T17:06:32.315Z,10.47
2019-04-27T17:09:06.843Z,10.20
2019-04-27T17:11:38.806Z,10.10
2019-04-27T17:14:28.989Z,10.11
2019-04-27T17:17:28.824Z,9.97
2019-04-27T17:20:01.897Z,9.88
2019-04-27T17:22:32.769Z,9.91
2019-04-27T17:25:03.847Z,9.70
2019-04-27T17:27:40.154Z,9.83
2019-04-27T17:30:12.426Z,9.79
2019-04-27T17:32:51.026Z,9.56
2019-04-27T17:35:22.268Z,9.61
2019-04-27T17:37:54.429Z,9.49
2019-04-27T17:40:25.322Z,9.52
2019-04-27T17:42:59.738Z,9.46
2019-04-27T17:45:33.784Z,9.46
2019-04-27T17:48:06.823Z,9.31
2019-04-27T17:50:33.401Z,9.28
2019-04-27T17:53:04.164Z,9.38
2019-04-27T17:55:34.902Z,9.45
2019-04-27T17:58:06.647Z,9.69
2019-04-27T18:00:43.093Z,9.79
2019-04-27T18:03:12.569Z,9.81
2019-04-27T18:05:43.758Z,9.76
2019-04-27T18:08:20.428Z,9.71
2019-04-27T18:10:47.632Z,9.58
2019-04-27T18:13:20.864Z,9.75
2019-04-27T18:15:54.067Z,9.81
2019-04-27T18:18:30.975Z,9.68
2019-04-27T18:21:01.845Z,9.63
2019-04-27T18:23:34.492Z,9.63
2019-04-27T18:26:17.477Z,9.66
2019-04-27T18:28:52.232Z,9.64
2019-04-27T18:31:18.595Z,9.79
2019-04-27T18:33:49.498Z,9.59
2019-04-27T18:36:20.270Z,9.73
2019-04-27T18:38:51.069Z,9.50
2019-04-27T18:41:21.841Z,9.55
2019-04-27T18:43:55.175Z,9.50
2019-04-27T18:46:25.151Z,9.57
2019-04-27T18:49:14.716Z,9.67
2019-04-27T18:52:04.280Z,9.56
2019-04-27T18:54:38.160Z,9.41
2019-04-27T18:57:10.803Z,9.26
2019-04-27T18:59:40.687Z,9.28
2019-04-27T19:02:11.399Z,9.26
2019-04-27T19:04:42.110Z,9.38
2019-04-27T19:07:12.645Z,9.21
2019-04-27T19:09:43.328Z,9.27
2019-04-27T19:12:14.164Z,9.18
2019-04-27T19:14:45.971Z,9.24
2019-04-27T19:17:19.666Z,9.18
2019-04-27T19:19:49.982Z,9.14
2019-04-27T19:22:20.736Z,9.20
2019-04-27T19:24:51.356Z,9.29
2019-04-27T19:27:42.626Z,9.34
2019-04-27T19:30:28.068Z,9.37
2019-04-27T19:32:59.050Z,9.35
2019-04-27T19:35:30.907Z,9.57
2019-04-27T19:38:01.613Z,9.45
2019-04-27T19:40:33.629Z,9.39
2019-04-27T19:43:04.412Z,9.38
2019-04-27T19:45:35.575Z,9.43
2019-04-27T19:48:06.494Z,9.40
2019-04-27T19:50:39.129Z,9.44
2019-04-27T19:53:09.787Z,9.58
2019-04-27T19:55:40.737Z,9.56
2019-04-27T19:58:14.390Z,9.42
2019-04-27T20:01:11.483Z,9.41
2019-04-27T20:03:38.674Z,9.51
2019-04-27T20:06:09.518Z,9.57
2019-04-27T20:08:42.449Z,9.45
2019-04-27T20:11:13.342Z,9.36
2019-04-27T20:13:44.200Z,9.33
2019-04-27T20:16:14.986Z,9.47
2019-04-27T20:18:45.710Z,9.46
2019-04-27T20:21:16.445Z,9.58
2019-04-27T20:23:47.227Z,9.40
2019-04-27T20:26:18.117Z,9.31
2019-04-27T20:28:48.845Z,9.29
2019-04-27T20:31:19.747Z,9.26
2019-04-27T20:33:50.483Z,9.25
2019-04-27T20:36:21.424Z,9.12
2019-04-27T20:38:52.212Z,9.20
2019-04-27T20:41:22.903Z,9.18
2019-04-27T20:43:53.572Z,9.34
2019-04-27T20:46:25.422Z,9.39
2019-04-27T20:48:56.201Z,9.38
2019-04-27T20:51:50.092Z,9.42
2019-04-27T20:54:16.987Z,9.38
2019-04-27T20:56:47.844Z,9.21
2019-04-27T20:59:18.436Z,9.25
2019-04-27T21:01:49.290Z,9.17
2019-04-27T21:04:22.675Z,9.11
2019-04-27T21:06:56.625Z,9.09
2019-04-27T21:09:27.185Z,9.06
2019-04-27T21:11:58.042Z,9.07
2019-04-27T21:14:28.744Z,9.06
2019-04-27T21:17:01.596Z,8.98
2019-04-27T21:19:31.809Z,8.99
2019-04-27T21:22:02.597Z,8.99
2019-04-27T21:24:33.303Z,8.90
2019-04-27T21:27:04.535Z,8.87
2019-04-27T21:29:35.619Z,8.93
2019-04-27T21:32:07.942Z,8.91
2019-04-27T21:34:41.317Z,9.01
2019-04-27T21:37:12.854Z,8.95
2019-04-27T21:39:43.404Z,9.00
2019-04-27T21:42:14.265Z,8.98
2019-04-27T21:44:44.934Z,8.89
2019-04-27T21:47:15.594Z,8.96
2019-04-27T21:49:46.432Z,8.94
2019-04-27T21:52:26.397Z,9.04
2019-04-27T21:54:57.217Z,9.07
2019-04-27T21:57:27.817Z,9.08
2019-04-27T21:59:58.479Z,9.01
2019-04-27T22:02:31.113Z,9.05
2019-04-27T22:05:02.449Z,9.03
2019-04-27T22:07:37.433Z,9.07
2019-04-27T22:10:07.165Z,9.09
2019-04-27T22:12:37.950Z,9.08
2019-04-27T22:15:08.735Z,9.01
2019-04-27T22:17:39.427Z,9.02
2019-04-27T22:20:11.703Z,9.04
2019-04-27T22:22:46.450Z,9.00
2019-04-27T22:25:18.930Z,8.92
2019-04-27T22:27:51.254Z,8.63
2019-04-27T22:30:22.026Z,8.64
2019-04-27T22:32:52.598Z,8.73
2019-04-27T22:35:23.406Z,8.64
2019-04-27T22:37:54.269Z,8.65
2019-04-27T22:40:47.512Z,8.75
2019-04-27T22:43:36.207Z,8.79
2019-04-27T22:46:09.081Z,8.76
2019-04-27T22:48:41.530Z,8.79
2019-04-27T22:51:12.350Z,8.67
2019-04-27T22:53:43.325Z,8.79
2019-04-27T22:56:19.358Z,8.69
2019-04-27T22:59:00.525Z,8.69
2019-04-27T23:02:03.142Z,8.60
2019-04-27T23:04:38.202Z,8.67
2019-04-27T23:07:08.937Z,8.67
2019-04-27T23:09:40.794Z,8.73
2019-04-27T23:12:12.422Z,8.65
2019-04-27T23:14:43.590Z,8.77
2019-04-27T23:17:31.642Z,8.77
2019-04-27T23:20:02.379Z,8.74
2019-04-27T23:22:33.348Z,8.73
2019-04-27T23:25:04.401Z,8.75
2019-04-27T23:27:35.178Z,8.74
2019-04-27T23:30:06.373Z,8.70
2019-04-27T23:32:43.052Z,8.80
2019-04-27T23:35:14.041Z,8.70
2019-04-27T23:37:44.754Z,8.58
2019-04-27T23:40:15.967Z,8.65
2019-04-27T23:42:46.792Z,8.66
2019-04-27T23:45:17.970Z,8.65
2019-04-27T23:47:48.882Z,8.72
2019-04-27T23:50:21.766Z,8.60
2019-04-27T23:53:13.746Z,8.53
2019-04-27T23:55:44.557Z,8.55
2019-04-27T23:58:15.438Z,8.36
